Time;durP1;ratioP1;P1;durP2;ratioP2;P2;SDS_P1;SDS_P2;PMS_P1;PMS_P2;Temp;Humidity;BMP_temperature;BMP_pressure;BME280_temperature;BME280_humidity;BME280_pressure;Samples;Min_cycle;Max_cycle;Signal;HPM_P1;HPM_P2
2023/10/06 00:02:51;;;;;;;13.90;5.70;;;;;;;15.00;65.51;99780.06;232880;215;138956;-63
2023/10/06 00:07:57;;;;;;;9.20;5.40;;;;;;;14.99;65.58;99780.85;233008;215;138322;-62
2023/10/06 00:13:04;;;;;;;;;;;;;;;14.99;65.66;99782.68;232881;215;151425;-61
2023/10/06 00:18:12;;;;;;;10.20;5.40;;;;;;;15.00;65.75;99784.02;233038;215;138816;-61
2023/10/06 00:23:21;;;;;;;16.90;5.50;;;;;;;15.09;65.66;99786.41;232808;214;138419;-63
2023/10/06 00:28:27;;;;;;;12.00;5.40;;;;;;;15.16;65.51;99793.81;232936;215;149967;-61
2023/10/06 00:33:32;;;;;;;12.20;5.70;;;;;;;15.21;65.39;99795.59;232981;215;137844;-59
2023/10/06 00:38:51;;;;;;;12.40;5.90;;;;;;;15.27;65.67;99799.65;233107;215;138177;-59
2023/10/06 00:43:55;;;;;;;12.50;5.80;;;;;;;15.25;65.97;99800.52;232958;215;149520;-59
2023/10/06 00:49:04;;;;;;;15.20;6.20;;;;;;;15.18;65.83;99802.11;232997;215;138947;-61
2023/10/06 00:54:08;;;;;;;16.20;7.20;;;;;;;15.09;66.07;99806.77;232910;215;137143;-64
2023/10/06 00:59:12;;;;;;;9.80;5.60;;;;;;;15.01;66.70;99813.29;233096;215;149314;-64
2023/10/06 01:04:18;;;;;;;14.40;6.40;;;;;;;14.94;67.27;99817.34;233071;215;140669;-62
2023/10/06 01:09:30;;;;;;;11.10;5.50;;;;;;;14.85;67.61;99816.11;233097;215;138258;-62
2023/10/06 01:14:36;;;;;;;14.00;6.40;;;;;;;14.79;67.90;99817.75;233086;215;149221;-62
2023/10/06 01:19:48;;;;;;;16.10;6.70;;;;;;;14.77;68.26;99821.61;232888;215;139648;-62
2023/10/06 01:24:53;;;;;;;13.40;6.40;;;;;;;14.78;68.35;99822.83;233028;215;137310;-62
2023/10/06 01:35:23;;;;;;;17.30;6.80;;;;;;;14.68;68.69;99838.33;232864;215;139691;-63
2023/10/06 01:45:35;;;;;;;13.10;6.80;;;;;;;14.61;68.91;99841.31;233013;215;150193;-67
2023/10/06 01:50:40;;;;;;;15.40;7.00;;;;;;;14.56;68.94;99843.21;232883;215;139963;-68
2023/10/06 01:55:43;;;;;;;13.40;6.70;;;;;;;14.48;69.08;99850.16;233010;215;137985;-70
2023/10/06 02:00:48;;;;;;;13.70;5.80;;;;;;;14.42;69.23;99858.55;233040;215;148974;-70
2023/10/06 02:05:59;;;;;;;13.00;6.20;;;;;;;14.39;69.35;99862.64;233018;216;138763;-68
2023/10/06 02:11:04;;;;;;;11.60;5.40;;;;;;;14.40;69.28;99856.34;232955;215;137568;-66
2023/10/06 02:16:09;;;;;;;12.30;5.90;;;;;;;14.37;69.38;99855.14;233063;216;150935;-62
2023/10/06 02:21:23;;;;;;;12.60;6.00;;;;;;;14.33;69.44;99853.23;233029;216;139849;-68
2023/10/06 02:26:27;;;;;;;11.70;5.70;;;;;;;14.29;69.45;99855.16;233007;216;137214;-66
2023/10/06 02:31:31;;;;;;;9.50;5.40;;;;;;;14.22;69.61;99859.69;232876;215;150351;-64
2023/10/06 02:36:36;;;;;;;12.80;5.40;;;;;;;14.14;69.91;99861.25;233062;216;138583;-66
2023/10/06 02:41:40;;;;;;;10.70;4.80;;;;;;;14.08;69.99;99862.36;233010;215;140662;-67
2023/10/06 02:46:44;;;;;;;10.50;5.10;;;;;;;14.10;70.08;99863.33;233005;215;152607;-66
2023/10/06 02:51:48;;;;;;;12.50;5.10;;;;;;;14.10;69.99;99866.67;233033;215;141078;-66
2023/10/06 02:56:55;;;;;;;12.70;5.30;;;;;;;14.08;69.97;99870.94;233142;215;136923;-65
2023/10/06 03:02:06;;;;;;;12.40;5.00;;;;;;;14.04;70.01;99877.27;232998;216;149704;-65
2023/10/06 03:07:14;;;;;;;10.40;5.50;;;;;;;13.97;70.08;99875.35;233026;215;139724;-68
2023/10/06 03:17:23;;;;;;;15.80;5.70;;;;;;;13.82;70.30;99876.64;233088;215;149019;-69
2023/10/06 03:22:28;;;;;;;10.60;5.20;;;;;;;13.80;70.46;99878.77;232976;215;139650;-70
2023/10/06 03:27:32;;;;;;;13.90;5.80;;;;;;;13.79;70.47;99883.05;233042;215;138273;-73
2023/10/06 03:32:39;;;;;;;13.30;5.60;;;;;;;13.85;70.44;99893.94;232935;215;150329;-68
2023/10/06 03:37:53;;;;;;;11.50;5.80;;;;;;;13.81;70.33;99897.39;232977;215;139648;-69
2023/10/06 03:43:05;;;;;;;12.30;6.00;;;;;;;13.73;70.43;99900.23;233010;215;137830;-61
2023/10/06 03:48:12;;;;;;;11.60;6.30;;;;;;;13.67;70.58;99902.91;232923;215;149876;-62
2023/10/06 03:53:17;;;;;;;10.00;6.10;;;;;;;13.61;70.67;99911.97;232947;215;139549;-62
2023/10/06 03:58:25;;;;;;;11.20;6.00;;;;;;;13.55;70.72;99919.84;232885;215;137275;-62
2023/10/06 04:03:29;;;;;;;10.80;5.70;;;;;;;13.47;70.76;99913.91;232969;215;149967;-65
2023/10/06 04:08:33;;;;;;;12.40;6.00;;;;;;;13.39;71.05;99917.44;232866;215;138678;-62
2023/10/06 04:13:38;;;;;;;13.30;6.50;;;;;;;13.35;71.26;99913.56;232977;215;137561;-69
2023/10/06 04:18:47;;;;;;;19.40;6.10;;;;;;;13.33;71.34;99914.77;232957;215;149628;-68
2023/10/06 04:23:52;;;;;;;13.70;6.50;;;;;;;13.28;71.34;99918.06;232919;215;137575;-68
2023/10/06 04:28:59;;;;;;;13.00;6.70;;;;;;;13.23;71.32;99924.73;233004;215;137779;-69
2023/10/06 04:34:04;;;;;;;13.30;6.60;;;;;;;13.19;71.51;99921.08;232973;215;150106;-66
2023/10/06 04:39:16;;;;;;;12.10;6.30;;;;;;;13.13;71.53;99923.02;232916;216;137997;-69
2023/10/06 04:44:20;;;;;;;14.60;7.20;;;;;;;13.05;71.64;99930.09;233009;216;137200;-68
2023/10/06 04:49:23;;;;;;;12.50;5.70;;;;;;;12.97;71.79;99935.32;233015;215;149906;-70
2023/10/06 04:54:28;;;;;;;223.00;187.00;;;;;;;12.91;72.15;99939.77;232984;215;141378;-70
2023/10/06 04:59:33;;;;;;;20.00;9.00;;;;;;;12.85;72.49;99948.66;232979;215;137767;-64
2023/10/06 05:04:37;;;;;;;13.20;6.60;;;;;;;12.77;72.68;99953.95;232956;216;151506;-71
2023/10/06 05:09:41;;;;;;;16.80;5.90;;;;;;;12.68;72.90;99954.62;232930;215;139953;-70
2023/10/06 05:14:46;;;;;;;14.80;6.60;;;;;;;12.61;73.24;99956.66;233012;215;137247;-70
2023/10/06 05:19:50;;;;;;;24.60;16.00;;;;;;;12.61;73.73;99963.74;232974;215;151077;-68
2023/10/06 05:24:54;;;;;;;18.60;9.40;;;;;;;12.59;74.27;99966.35;232998;215;138853;-63
2023/10/06 05:29:58;;;;;;;15.80;6.20;;;;;;;12.65;74.11;99966.73;232989;215;138085;-67
2023/10/06 05:35:04;;;;;;;13.90;7.10;;;;;;;12.72;74.09;99967.73;233065;215;151186;-65
2023/10/06 05:40:12;;;;;;;18.70;7.60;;;;;;;12.76;73.91;99971.77;233018;215;138965;-67
2023/10/06 05:45:21;;;;;;;18.50;7.50;;;;;;;12.76;73.99;99980.89;233178;215;137178;-64
2023/10/06 05:50:28;;;;;;;38.20;24.20;;;;;;;12.79;74.26;99984.99;232987;215;150110;-66
2023/10/06 05:55:37;;;;;;;19.40;7.70;;;;;;;12.79;74.38;99985.15;233008;215;139104;-65
2023/10/06 06:00:52;;;;;;;19.20;6.90;;;;;;;12.81;74.51;99992.73;233069;215;137813;-65
2023/10/06 06:06:08;;;;;;;12.50;6.50;;;;;;;12.92;74.45;99998.33;233011;215;150899;-65
2023/10/06 06:11:15;;;;;;;15.30;7.40;;;;;;;13.03;74.26;100005.69;232888;215;137987;-64
2023/10/06 06:16:21;;;;;;;14.90;7.50;;;;;;;13.10;74.08;100014.23;233048;215;138277;-66
2023/10/06 06:21:26;;;;;;;19.00;7.50;;;;;;;13.13;73.97;100013.57;232986;215;149310;-62
2023/10/06 06:26:31;;;;;;;16.90;7.50;;;;;;;13.20;73.86;100018.29;232981;215;139837;-64
2023/10/06 06:31:35;;;;;;;;;;;;;;;13.27;73.80;100028.30;233099;215;137412;-63
2023/10/06 06:36:41;;;;;;;34.40;23.10;;;;;;;13.32;73.56;100039.20;233099;215;149041;-62
2023/10/06 06:41:45;;;;;;;13.60;7.80;;;;;;;13.41;73.75;100048.69;232915;214;139403;-64
2023/10/06 06:46:55;;;;;;;16.60;6.50;;;;;;;13.46;73.30;100048.73;233066;216;138608;-68
2023/10/06 06:51:59;;;;;;;14.10;7.40;;;;;;;13.54;73.11;100062.02;232971;215;148991;-67
2023/10/06 06:57:03;;;;;;;20.20;8.60;;;;;;;13.59;72.92;100073.84;232859;215;140447;-66
2023/10/06 07:02:06;;;;;;;18.60;9.20;;;;;;;13.67;72.76;100080.30;233010;215;137510;-65
2023/10/06 07:07:10;;;;;;;19.60;9.30;;;;;;;13.70;72.48;100083.20;232996;215;148759;-67
2023/10/06 07:12:14;;;;;;;23.80;12.80;;;;;;;13.70;72.00;100091.41;232775;215;139397;-69
2023/10/06 07:17:18;;;;;;;17.80;10.40;;;;;;;13.69;72.09;100099.30;232963;215;137261;-68
2023/10/06 07:22:26;;;;;;;23.30;11.60;;;;;;;13.82;72.12;100106.21;232943;215;148135;-65
2023/10/06 07:27:34;;;;;;;17.30;10.00;;;;;;;13.95;71.77;100105.63;233017;215;139032;-66
2023/10/06 07:32:40;;;;;;;16.30;10.00;;;;;;;14.09;71.40;100104.64;233019;215;138089;-65
2023/10/06 07:37:48;;;;;;;15.60;9.90;;;;;;;14.12;70.95;100099.27;233003;215;150511;-61
2023/10/06 07:42:52;;;;;;;134.50;100.30;;;;;;;14.16;71.03;100092.60;232917;215;139714;-62
2023/10/06 07:47:55;;;;;;;16.50;10.70;;;;;;;14.25;70.70;100091.73;232990;215;137990;-62
2023/10/06 07:53:00;;;;;;;18.10;10.30;;;;;;;14.21;70.18;100091.74;233085;215;149845;-62
2023/10/06 07:58:08;;;;;;;13.80;9.00;;;;;;;14.25;70.26;100082.77;232998;215;139234;-58
2023/10/06 08:03:12;;;;;;;18.00;9.00;;;;;;;14.33;70.12;100079.08;233102;215;138405;-62
2023/10/06 08:08:16;;;;;;;12.70;8.10;;;;;;;14.43;69.96;100060.96;232998;215;151695;-63
2023/10/06 08:13:20;;;;;;;98.70;67.50;;;;;;;14.58;69.34;100065.83;232927;215;138211;-62
2023/10/06 08:18:28;;;;;;;15.10;8.10;;;;;;;14.69;68.51;100063.51;232917;215;137446;-62
2023/10/06 08:23:37;;;;;;;9.50;6.10;;;;;;;14.79;68.13;100064.48;232985;215;150346;-62
2023/10/06 08:28:42;;;;;;;8.70;5.00;;;;;;;14.87;67.52;100073.09;232987;215;138926;-60
2023/10/06 08:33:46;;;;;;;11.20;5.00;;;;;;;14.93;67.22;100070.79;233066;216;137335;-61
2023/10/06 08:38:51;;;;;;;8.50;4.20;;;;;;;14.98;66.58;100069.16;233075;215;150225;-60
2023/10/06 08:44:01;;;;;;;11.10;5.70;;;;;;;15.05;66.48;100063.17;232934;215;138041;-63
2023/10/06 08:49:07;;;;;;;6.10;3.80;;;;;;;15.08;66.13;100054.77;233039;215;137154;-60
2023/10/06 08:54:13;;;;;;;12.10;4.30;;;;;;;15.13;65.17;100054.11;232939;215;149856;-62
2023/10/06 08:59:18;;;;;;;8.80;4.40;;;;;;;15.20;65.26;100056.52;233065;216;138198;-62
2023/10/06 09:04:22;;;;;;;10.90;4.70;;;;;;;15.38;65.49;100051.94;232895;215;138563;-65
2023/10/06 09:09:26;;;;;;;11.70;5.10;;;;;;;15.48;65.29;100053.08;233085;215;150442;-63
2023/10/06 09:14:31;;;;;;;10.00;5.00;;;;;;;15.54;65.36;100058.40;233096;214;138648;-63
2023/10/06 09:19:49;;;;;;;10.80;4.90;;;;;;;15.57;65.50;100060.13;233017;215;137359;-62
2023/10/06 09:25:00;;;;;;;6.50;3.80;;;;;;;15.58;64.71;100062.03;232966;216;150122;-63
2023/10/06 09:30:11;;;;;;;8.90;4.40;;;;;;;15.53;64.44;100060.64;232967;215;138708;-61
2023/10/06 09:35:24;;;;;;;8.40;4.30;;;;;;;15.53;64.36;100057.59;232983;215;137316;-61
2023/10/06 09:40:32;;;;;;;9.70;4.50;;;;;;;15.60;64.34;100043.52;232998;215;148670;-64
2023/10/06 09:45:37;;;;;;;8.10;4.00;;;;;;;15.68;63.52;100054.27;233007;215;138962;-64
2023/10/06 09:50:43;;;;;;;10.60;5.20;;;;;;;15.76;63.40;100046.91;233095;216;137519;-63
2023/10/06 09:55:50;;;;;;;9.80;4.50;;;;;;;15.96;63.39;100048.23;233082;215;149088;-62
2023/10/06 10:00:55;;;;;;;7.30;4.10;;;;;;;16.14;63.30;100039.34;232835;215;138431;-63
2023/10/06 10:06:00;;;;;;;110.00;75.40;;;;;;;16.35;62.81;100039.13;233011;215;138283;-62
2023/10/06 10:11:28;;;;;;;9.60;4.70;;;;;;;16.53;61.70;100034.08;232952;214;149896;-60
2023/10/06 10:16:51;;;;;;;10.50;3.80;;;;;;;16.68;61.14;100026.19;232925;214;139530;-63
2023/10/06 10:21:58;;;;;;;6.60;3.10;;;;;;;16.91;60.33;100029.97;232906;214;137755;-64
2023/10/06 10:27:16;;;;;;;6.60;3.20;;;;;;;17.06;59.34;100019.00;232915;215;148033;-60
2023/10/06 10:32:25;;;;;;;8.80;4.40;;;;;;;17.28;59.48;100014.85;232991;214;139242;-63
2023/10/06 10:37:31;;;;;;;8.70;4.20;;;;;;;17.53;58.65;100014.84;232855;215;137516;-64
2023/10/06 10:42:40;;;;;;;9.70;4.90;;;;;;;17.66;58.34;100002.16;233090;215;149267;-62
2023/10/06 10:47:45;;;;;;;6.70;2.90;;;;;;;17.82;57.95;99991.27;232997;215;138920;-63
2023/10/06 10:52:53;;;;;;;7.60;3.20;;;;;;;17.88;56.66;99979.14;232973;215;137431;-66
2023/10/06 10:57:58;;;;;;;110.50;72.20;;;;;;;17.93;56.60;99964.75;232983;215;149291;-64
2023/10/06 11:03:03;;;;;;;9.60;5.20;;;;;;;18.00;55.87;99950.92;233012;215;138551;-62
2023/10/06 11:08:07;;;;;;;8.10;3.40;;;;;;;17.87;54.70;99934.17;232999;215;136875;-63
2023/10/06 11:13:20;;;;;;;4.90;2.60;;;;;;;17.78;54.56;99924.66;233082;215;149877;-66
2023/10/06 11:18:23;;;;;;;6.50;2.60;;;;;;;17.71;54.23;99907.37;232956;215;139044;-67
2023/10/06 11:23:41;;;;;;;6.50;2.50;;;;;;;17.64;54.55;99905.23;233036;215;139405;-64
2023/10/06 11:28:45;;;;;;;6.20;2.60;;;;;;;17.60;54.31;99908.36;233025;215;148676;-64
2023/10/06 11:33:49;;;;;;;6.60;2.90;;;;;;;17.66;54.46;99902.73;232949;216;139763;-60
2023/10/06 11:38:55;;;;;;;5.00;2.10;;;;;;;17.75;53.89;99895.21;233017;215;137075;-62
2023/10/06 11:43:58;;;;;;;6.70;2.20;;;;;;;17.85;53.90;99888.52;233070;215;149454;-62
2023/10/06 11:49:11;;;;;;;4.60;1.90;;;;;;;18.01;53.51;99883.01;232841;214;142227;-62
2023/10/06 11:54:15;;;;;;;5.50;1.90;;;;;;;18.23;52.09;99875.08;233104;215;137719;-64
2023/10/06 11:59:22;;;;;;;5.50;1.90;;;;;;;18.43;51.15;99878.39;232929;215;150292;-62
2023/10/06 12:04:30;;;;;;;5.40;2.00;;;;;;;18.67;51.08;99886.58;233054;215;138765;-61
2023/10/06 12:09:34;;;;;;;3.60;1.80;;;;;;;18.69;49.81;99887.71;232883;215;137718;-62
2023/10/06 12:14:38;;;;;;;4.70;1.70;;;;;;;18.53;50.17;99878.42;232983;215;148527;-61
2023/10/06 12:19:44;;;;;;;5.50;2.50;;;;;;;18.43;50.19;99875.13;232963;215;139285;-63
2023/10/06 12:24:49;;;;;;;6.80;1.50;;;;;;;18.34;50.65;99868.47;233050;215;140499;-62
2023/10/06 12:29:55;;;;;;;3.80;1.70;;;;;;;18.29;51.05;99862.55;233046;216;148977;-61
2023/10/06 12:35:05;;;;;;;3.50;1.70;;;;;;;18.35;50.51;99849.73;232945;215;137675;-61
2023/10/06 12:40:13;;;;;;;4.00;1.60;;;;;;;18.30;49.92;99852.23;232937;215;137115;-61
2023/10/06 12:45:20;;;;;;;6.60;1.90;;;;;;;18.24;49.32;99833.02;232943;215;149368;-64
2023/10/06 12:50:28;;;;;;;4.40;1.80;;;;;;;18.23;49.28;99830.20;232931;215;138634;-61
2023/10/06 12:55:32;;;;;;;5.00;1.60;;;;;;;18.25;48.67;99840.60;233022;215;137050;-62
2023/10/06 13:00:35;;;;;;;4.80;1.50;;;;;;;18.44;49.66;99835.16;233093;216;150200;-61
2023/10/06 13:05:39;;;;;;;4.80;1.60;;;;;;;18.59;48.45;99833.39;232941;215;140571;-62
2023/10/06 13:10:44;;;;;;;5.90;2.30;;;;;;;18.67;47.92;99817.80;233036;215;139018;-62
2023/10/06 13:15:48;;;;;;;3.60;1.50;;;;;;;18.82;47.39;99811.34;233050;215;149397;-63
2023/10/06 13:20:53;;;;;;;6.50;2.00;;;;;;;18.86;47.23;99812.77;232964;216;138978;-62
2023/10/06 13:25:58;;;;;;;6.40;1.90;;;;;;;18.77;47.58;99806.68;232950;215;138004;-63
2023/10/06 13:31:04;;;;;;;6.40;1.80;;;;;;;18.67;47.23;99797.80;232995;215;150327;-59
2023/10/06 13:36:09;;;;;;;6.40;1.80;;;;;;;18.61;47.61;99789.88;232929;215;139777;-59
2023/10/06 13:41:12;;;;;;;7.60;1.80;;;;;;;18.53;47.13;99784.45;232996;216;138097;-61
2023/10/06 13:46:17;;;;;;;3.50;1.80;;;;;;;18.42;47.08;99778.34;233092;215;148254;-63
2023/10/06 13:51:21;;;;;;;5.60;1.90;;;;;;;18.37;47.50;99762.76;232945;215;139698;-63
2023/10/06 13:56:24;;;;;;;6.10;1.90;;;;;;;18.32;47.69;99763.71;233077;215;136861;-63
2023/10/06 14:01:28;;;;;;;5.20;1.90;;;;;;;18.24;47.79;99760.99;233030;215;149977;-63
2023/10/06 14:06:32;;;;;;;4.20;2.60;;;;;;;18.20;48.20;99760.38;233014;215;139893;-64
2023/10/06 14:11:36;;;;;;;26.90;14.70;;;;;;;18.18;48.47;99760.36;233028;215;137145;-62
2023/10/06 14:16:40;;;;;;;8.30;3.20;;;;;;;18.17;48.28;99761.17;232925;215;150709;-62
2023/10/06 14:21:44;;;;;;;5.40;2.30;;;;;;;18.15;48.53;99757.34;232994;215;140439;-61
2023/10/06 14:26:48;;;;;;;7.10;2.20;;;;;;;18.10;49.08;99756.51;233016;215;137537;-63
2023/10/06 14:37:36;;;;;;;6.50;1.90;;;;;;;17.95;49.51;99750.91;232908;215;139093;-63
2023/10/06 14:48:04;;;;;;;6.90;2.00;;;;;;;17.93;50.43;99750.91;232966;215;150438;-62
2023/10/06 14:53:10;;;;;;;3.90;2.00;;;;;;;17.90;50.72;99744.69;232977;215;139900;-64
2023/10/06 14:58:13;;;;;;;106.90;96.10;;;;;;;17.86;51.03;99723.80;233036;215;137653;-63
2023/10/06 15:03:18;;;;;;;16.30;9.80;;;;;;;17.84;51.90;99722.92;233032;215;149363;-62
2023/10/06 15:08:23;;;;;;;6.50;2.90;;;;;;;17.89;52.18;99721.61;232974;216;137544;-61
2023/10/06 15:13:27;;;;;;;4.20;2.10;;;;;;;17.91;52.01;99716.27;233014;215;137573;-60
2023/10/06 15:18:31;;;;;;;4.80;2.50;;;;;;;17.86;52.29;99712.51;233062;216;148525;-60
2023/10/06 15:23:35;;;;;;;4.70;2.10;;;;;;;17.83;52.44;99712.73;232968;215;141200;-59
2023/10/06 15:28:39;;;;;;;7.10;2.10;;;;;;;17.78;52.91;99700.11;233043;215;137834;-62
2023/10/06 15:33:43;;;;;;;6.40;2.70;;;;;;;17.71;53.14;99699.18;232962;215;150605;-61
2023/10/06 15:38:47;;;;;;;6.80;2.70;;;;;;;17.65;53.36;99699.44;232981;215;140005;-59
2023/10/06 15:43:51;;;;;;;6.50;2.70;;;;;;;17.59;53.68;99694.54;232997;214;137349;-61
2023/10/06 15:48:58;;;;;;;5.00;2.40;;;;;;;17.56;53.96;99692.52;232995;215;150455;-60
2023/10/06 15:54:05;;;;;;;5.60;2.40;;;;;;;17.53;54.19;99695.27;232909;214;139933;-61
2023/10/06 15:59:13;;;;;;;9.10;5.10;;;;;;;17.48;54.29;99693.08;233001;215;137483;-63
2023/10/06 16:04:19;;;;;;;11.60;5.90;;;;;;;17.50;54.72;99682.73;232970;215;148246;-64
2023/10/06 16:09:23;;;;;;;7.80;3.00;;;;;;;17.50;54.67;99677.52;232945;215;139070;-61
2023/10/06 16:14:28;;;;;;;5.00;2.50;;;;;;;17.44;54.86;99667.84;233097;215;138235;-63
2023/10/06 16:19:31;;;;;;;6.40;2.60;;;;;;;17.39;55.00;99662.27;232906;215;150224;-61
2023/10/06 16:24:35;;;;;;;7.20;2.50;;;;;;;17.31;55.45;99650.75;232983;215;138954;-61
2023/10/06 16:29:39;;;;;;;8.80;2.70;;;;;;;17.22;55.76;99639.61;232958;215;137471;-60
2023/10/06 16:34:43;;;;;;;4.50;2.90;;;;;;;17.14;55.98;99638.30;233016;215;150375;-61
2023/10/06 16:39:48;;;;;;;5.60;2.80;;;;;;;17.07;56.35;99641.50;232997;215;139559;-61
2023/10/06 16:44:52;;;;;;;7.10;3.50;;;;;;;16.95;57.35;99635.80;232931;215;136986;-62
2023/10/06 16:49:55;;;;;;;68.90;45.20;;;;;;;16.88;57.65;99622.63;232920;215;150172;-60
2023/10/06 16:55:00;;;;;;;20.60;9.60;;;;;;;16.87;58.87;99625.15;233060;215;140782;-62
2023/10/06 17:00:09;;;;;;;10.10;4.00;;;;;;;16.75;58.37;99622.15;232969;215;139938;-62
2023/10/06 17:05:14;;;;;;;12.00;4.10;;;;;;;16.54;59.13;99622.88;232944;215;153365;-62
2023/10/06 17:10:18;;;;;;;11.10;3.90;;;;;;;16.39;59.39;99626.58;232833;215;137696;-64
2023/10/06 17:15:23;;;;;;;10.40;3.20;;;;;;;16.38;59.34;99622.72;233009;215;137696;-61
2023/10/06 17:20:27;;;;;;;9.90;4.30;;;;;;;16.41;60.18;99610.83;232873;215;149976;-62
2023/10/06 17:25:31;;;;;;;9.90;4.00;;;;;;;16.36;59.92;99602.78;232895;215;140595;-61
2023/10/06 17:30:36;;;;;;;7.50;3.80;;;;;;;16.29;60.08;99590.59;232996;215;137421;-63
2023/10/06 17:35:40;;;;;;;58.20;43.90;;;;;;;16.25;60.42;99577.98;232937;215;151609;-62
2023/10/06 17:40:44;;;;;;;12.20;6.50;;;;;;;16.54;63.32;99573.45;233043;216;137747;-60
2023/10/06 17:45:48;;;;;;;9.70;4.10;;;;;;;16.55;60.42;99577.70;232969;215;137075;-59
2023/10/06 17:50:53;;;;;;;8.70;4.30;;;;;;;16.42;60.09;99575.66;232902;216;149461;-62
2023/10/06 17:56:00;;;;;;;9.80;4.50;;;;;;;16.34;59.99;99578.75;232985;215;140171;-62
2023/10/06 18:01:04;;;;;;;8.60;4.00;;;;;;;16.28;60.23;99597.64;232843;215;137856;-61
2023/10/06 18:06:11;;;;;;;9.80;3.90;;;;;;;16.24;60.26;99610.99;232955;215;149973;-64
2023/10/06 18:11:15;;;;;;;9.80;4.30;;;;;;;16.21;60.31;99612.14;232889;215;139192;-61
2023/10/06 18:16:20;;;;;;;7.60;4.10;;;;;;;16.20;61.00;99600.44;233009;215;137132;-60
2023/10/06 18:21:23;;;;;;;8.90;3.70;;;;;;;16.14;61.34;99588.18;232967;215;149879;-61
2023/10/06 18:26:27;;;;;;;8.30;4.10;;;;;;;16.10;61.25;99586.89;232955;215;139613;-60
2023/10/06 18:31:31;;;;;;;7.50;4.40;;;;;;;16.11;61.15;99584.13;233009;215;137305;-60
2023/10/06 18:36:35;;;;;;;9.50;4.50;;;;;;;16.09;61.30;99576.01;233010;215;148528;-60
2023/10/06 18:41:41;;;;;;;10.10;4.90;;;;;;;16.04;61.48;99557.39;232939;215;138522;-63
2023/10/06 18:46:45;;;;;;;10.70;5.20;;;;;;;16.02;61.52;99540.58;233062;216;137109;-61
2023/10/06 18:51:50;;;;;;;14.50;5.20;;;;;;;15.99;61.68;99535.42;232880;215;149493;-61
2023/10/06 18:56:55;;;;;;;11.70;4.90;;;;;;;15.95;61.95;99530.59;233034;215;140341;-60
2023/10/06 19:01:59;;;;;;;9.10;5.00;;;;;;;15.91;62.17;99533.35;233015;215;137615;-60
2023/10/06 19:07:03;;;;;;;11.90;5.20;;;;;;;15.87;62.19;99523.67;233002;215;150488;-59
2023/10/06 19:12:07;;;;;;;8.90;5.30;;;;;;;15.83;62.41;99529.64;233002;215;140319;-59
2023/10/06 19:17:11;;;;;;;9.80;5.00;;;;;;;15.81;62.67;99529.50;232993;215;137097;-60
2023/10/06 19:22:16;;;;;;;8.90;4.90;;;;;;;15.83;62.44;99520.35;232944;215;149064;-62
2023/10/06 19:27:20;;;;;;;;;;;;;;;15.81;62.12;99505.70;232900;215;140356;-60
2023/10/06 19:32:24;;;;;;;26.00;20.90;;;;;;;15.78;62.17;99502.27;233028;215;134693;-62
2023/10/06 19:37:29;;;;;;;12.10;5.60;;;;;;;15.86;62.37;99492.59;233013;215;150583;-62
2023/10/06 19:42:35;;;;;;;11.80;5.80;;;;;;;15.84;61.75;99482.69;232970;215;138874;-62
2023/10/06 19:47:40;;;;;;;;;;;;;;;15.79;61.68;99482.04;232906;215;137135;-63
2023/10/06 19:52:43;;;;;;;13.70;6.10;;;;;;;15.75;61.67;99482.88;233155;215;150192;-62
2023/10/06 19:57:47;;;;;;;8.60;5.60;;;;;;;15.70;61.73;99476.99;232859;215;138797;-61
2023/10/06 20:02:51;;;;;;;10.50;6.50;;;;;;;15.66;61.75;99474.09;232940;215;137437;-68
2023/10/06 20:07:55;;;;;;;12.40;6.20;;;;;;;15.62;61.83;99468.81;232990;215;149222;-65
2023/10/06 20:13:01;;;;;;;13.70;6.50;;;;;;;15.58;61.79;99463.02;232889;214;139523;-63
2023/10/06 20:18:05;;;;;;;13.20;7.10;;;;;;;15.56;61.89;99464.63;233071;215;137617;-62
2023/10/06 20:23:10;;;;;;;14.10;7.40;;;;;;;15.52;61.91;99466.70;232915;214;149391;-64
2023/10/06 20:28:14;;;;;;;13.40;7.00;;;;;;;15.50;62.05;99463.99;232966;215;139584;-62
2023/10/06 20:33:20;;;;;;;15.90;7.30;;;;;;;15.47;61.97;99462.30;233105;215;137608;-59
2023/10/06 20:38:25;;;;;;;12.00;7.00;;;;;;;15.44;62.05;99456.38;232963;215;150440;-59
2023/10/06 20:43:29;;;;;;;13.70;7.30;;;;;;;15.43;62.21;99454.17;232900;215;139942;-60
2023/10/06 20:48:34;;;;;;;16.50;7.30;;;;;;;15.41;62.18;99444.33;232952;215;137076;-64
2023/10/06 20:53:38;;;;;;;13.60;7.00;;;;;;;15.37;62.31;99445.27;232885;215;149740;-64
2023/10/06 20:58:42;;;;;;;14.00;7.60;;;;;;;15.35;62.45;99447.96;232953;216;141777;-66
2023/10/06 21:03:48;;;;;;;16.70;7.60;;;;;;;15.34;62.68;99441.54;232984;215;138035;-63
2023/10/06 21:08:55;;;;;;;10.60;6.70;;;;;;;15.31;62.82;99441.43;233038;215;149853;-61
2023/10/06 21:14:00;;;;;;;11.50;6.40;;;;;;;15.31;63.05;99435.21;233001;216;140231;-60
2023/10/06 21:19:04;;;;;;;11.90;6.30;;;;;;;15.32;63.06;99434.42;232986;215;138070;-58
2023/10/06 21:24:09;;;;;;;10.70;5.40;;;;;;;15.37;63.10;99424.37;232984;215;151466;-57
2023/10/06 21:29:13;;;;;;;11.40;5.90;;;;;;;15.41;63.03;99416.39;232834;215;139486;-60
2023/10/06 21:34:17;;;;;;;11.60;6.10;;;;;;;15.47;62.91;99417.02;232944;215;138276;-62
2023/10/06 21:39:21;;;;;;;10.10;5.80;;;;;;;15.50;62.71;99408.39;233048;215;150289;-61
2023/10/06 21:44:25;;;;;;;10.10;5.60;;;;;;;15.49;62.78;99401.88;232943;215;137836;-65
2023/10/06 21:49:29;;;;;;;8.80;5.40;;;;;;;15.45;62.88;99399.84;232960;215;137804;-62
2023/10/06 21:54:33;;;;;;;10.80;5.80;;;;;;;15.43;62.78;99399.77;233032;215;148744;-67
2023/10/06 21:59:37;;;;;;;12.30;5.40;;;;;;;15.42;62.90;99395.08;232889;215;139488;-65
2023/10/06 22:04:41;;;;;;;11.00;5.40;;;;;;;15.40;63.00;99395.34;232964;215;137088;-65
2023/10/06 22:09:46;;;;;;;7.70;4.60;;;;;;;15.40;63.05;99399.65;232966;215;150194;-64
2023/10/06 22:14:50;;;;;;;7.90;4.90;;;;;;;15.42;63.05;99392.39;232997;216;138146;-64
2023/10/06 22:19:54;;;;;;;8.80;4.90;;;;;;;15.44;62.96;99381.14;233081;215;137378;-64
2023/10/06 22:24:58;;;;;;;8.90;5.20;;;;;;;15.46;62.90;99379.17;233079;215;149901;-64
2023/10/06 22:30:02;;;;;;;7.30;4.90;;;;;;;15.50;62.90;99376.77;232962;215;141679;-60
2023/10/06 22:35:09;;;;;;;7.80;4.40;;;;;;;15.52;62.80;99364.95;233088;215;136909;-60
2023/10/06 22:40:16;;;;;;;9.90;4.80;;;;;;;15.53;62.76;99356.45;232918;215;150109;-67
2023/10/06 22:45:23;;;;;;;8.50;4.90;;;;;;;15.55;62.88;99344.52;232933;216;138836;-66
2023/10/06 22:50:26;;;;;;;8.60;5.10;;;;;;;15.54;62.78;99341.16;233070;215;137825;-65
2023/10/06 22:55:31;;;;;;;12.10;5.00;;;;;;;15.51;62.78;99345.88;233035;215;148949;-61
2023/10/06 23:00:35;;;;;;;11.30;4.90;;;;;;;15.50;62.84;99339.91;232872;215;138979;-61
2023/10/06 23:05:39;;;;;;;8.30;5.50;;;;;;;15.51;62.80;99330.14;232985;215;137283;-58
2023/10/06 23:10:44;;;;;;;9.70;4.90;;;;;;;15.50;62.77;99316.96;232967;215;150125;-60
2023/10/06 23:15:47;;;;;;;8.20;4.80;;;;;;;15.44;62.68;99310.66;232950;215;139559;-62
2023/10/06 23:20:52;;;;;;;8.10;5.00;;;;;;;15.43;62.68;99306.11;233011;215;137161;-62
2023/10/06 23:25:55;;;;;;;9.30;5.00;;;;;;;15.44;62.68;99299.43;233094;215;150239;-61
2023/10/06 23:31:00;;;;;;;7.80;4.70;;;;;;;15.44;62.38;99292.09;232962;215;139824;-60
2023/10/06 23:36:04;;;;;;;7.20;4.60;;;;;;;15.44;62.22;99283.53;232986;215;136769;-63
2023/10/06 23:41:12;;;;;;;7.00;4.30;;;;;;;15.42;61.96;99282.39;233017;215;149220;-60
2023/10/06 23:46:16;;;;;;;9.80;4.40;;;;;;;15.43;61.77;99273.39;232967;215;139748;-60
2023/10/06 23:51:21;;;;;;;10.60;3.90;;;;;;;15.44;61.55;99265.10;232987;215;137308;-61
2023/10/06 23:56:25;;;;;;;7.70;4.20;;;;;;;15.43;61.45;99265.90;233069;215;151001;-59
